createdAt,value
2018-09-20T00:01:23.550Z,4.00
2018-09-20T00:05:26.876Z,5.03
2018-09-20T00:09:30.212Z,4.50
2018-09-20T00:13:33.565Z,4.80
2018-09-20T00:17:36.896Z,4.37
2018-09-20T00:21:40.194Z,4.00
2018-09-20T00:25:43.528Z,4.70
2018-09-20T00:29:46.857Z,4.97
2018-09-20T00:33:50.213Z,4.67
2018-09-20T00:37:53.547Z,4.60
2018-09-20T00:41:56.897Z,4.67
2018-09-20T00:46:00.227Z,4.80
2018-09-20T00:50:03.701Z,5.00
2018-09-20T00:54:07.808Z,4.70
2018-09-20T00:58:11.147Z,4.77
2018-09-20T01:02:14.468Z,4.83
2018-09-20T01:06:17.835Z,4.67
2018-09-20T01:10:21.307Z,5.40
2018-09-20T01:14:24.640Z,4.80
2018-09-20T01:18:27.970Z,4.93
2018-09-20T01:22:31.298Z,4.50
2018-09-20T01:26:34.652Z,5.23
2018-09-20T01:30:37.999Z,4.50
2018-09-20T01:34:41.323Z,4.83
2018-09-20T01:38:44.655Z,4.73
2018-09-20T01:42:47.988Z,4.63
2018-09-20T01:46:51.302Z,4.60
2018-09-20T01:50:54.630Z,4.83
2018-09-20T01:54:57.982Z,4.43
2018-09-20T01:59:01.339Z,4.57
2018-09-20T02:03:04.675Z,5.10
2018-09-20T02:07:08.022Z,4.63
2018-09-20T02:11:11.383Z,4.70
2018-09-20T02:15:14.765Z,5.10
2018-09-20T02:19:18.096Z,5.00
2018-09-20T02:23:21.444Z,5.23
2018-09-20T02:27:24.787Z,5.10
2018-09-20T02:31:28.127Z,5.30
2018-09-20T02:35:31.544Z,5.00
2018-09-20T02:44:37.680Z,5.47
2018-09-20T02:48:40.994Z,5.17
2018-09-20T02:52:44.344Z,5.13
2018-09-20T02:56:47.668Z,5.33
2018-09-20T03:00:51.118Z,5.80
2018-09-20T03:04:54.465Z,5.43
2018-09-20T03:08:57.768Z,5.13
2018-09-20T03:13:01.120Z,4.87
2018-09-20T03:17:04.455Z,5.17
2018-09-20T03:21:07.793Z,5.20
2018-09-20T03:25:11.162Z,5.93
2018-09-20T03:29:14.464Z,5.43
2018-09-20T03:33:17.816Z,5.50
2018-09-20T03:37:21.140Z,5.50
2018-09-20T03:41:24.493Z,5.17
2018-09-20T03:45:27.926Z,5.40
2018-09-20T03:49:31.259Z,5.43
2018-09-20T03:53:34.594Z,5.73
2018-09-20T03:57:37.948Z,5.40
2018-09-20T04:01:41.282Z,5.50
2018-09-20T04:05:44.638Z,5.47
2018-09-20T04:09:48.075Z,5.50
2018-09-20T04:13:51.390Z,6.07
2018-09-20T04:17:54.819Z,5.70
2018-09-20T04:21:58.175Z,5.73
2018-09-20T04:26:01.504Z,5.70
2018-09-20T04:30:05.245Z,5.93
2018-09-20T04:34:08.592Z,5.90
2018-09-20T04:38:12.040Z,5.47
2018-09-20T04:42:15.391Z,5.63
2018-09-20T04:46:18.935Z,5.60
2018-09-20T04:50:22.276Z,5.37
2018-09-20T04:54:25.578Z,5.67
2018-09-20T04:58:28.898Z,5.67
2018-09-20T05:02:32.244Z,5.83
2018-09-20T05:06:35.589Z,5.23
2018-09-20T05:10:38.955Z,6.13
2018-09-20T05:14:42.314Z,5.33
2018-09-20T05:18:45.662Z,5.70
2018-09-20T05:22:48.984Z,6.13
2018-09-20T05:26:52.318Z,6.63
2018-09-20T05:30:55.660Z,6.13
2018-09-20T05:34:59.007Z,5.97
2018-09-20T05:39:02.362Z,6.40
2018-09-20T05:43:05.715Z,5.63
2018-09-20T05:47:09.066Z,5.40
2018-09-20T05:51:12.407Z,5.47
2018-09-20T05:55:15.712Z,5.37
2018-09-20T06:00:02.491Z,5.70
2018-09-20T06:04:05.825Z,5.53
2018-09-20T06:08:09.183Z,5.27
2018-09-20T06:12:12.543Z,5.57
2018-09-20T06:16:15.901Z,5.83
2018-09-20T06:20:19.219Z,5.43
2018-09-20T06:24:22.630Z,5.50
2018-09-20T06:28:25.957Z,5.23
2018-09-20T06:32:29.579Z,5.47
2018-09-20T06:36:32.920Z,5.57
2018-09-20T06:40:36.268Z,5.37
2018-09-20T06:44:39.648Z,5.70
2018-09-20T06:48:43.027Z,5.03
2018-09-20T06:52:46.372Z,5.97
2018-09-20T06:56:49.811Z,4.87
2018-09-20T07:00:53.263Z,4.60
2018-09-20T07:04:56.619Z,4.93
2018-09-20T07:09:00.030Z,5.60
2018-09-20T07:13:12.088Z,5.30
2018-09-20T07:17:15.435Z,5.57
2018-09-20T07:21:18.774Z,5.37
2018-09-20T07:25:22.226Z,4.87
2018-09-20T07:29:25.469Z,4.53
2018-09-20T07:33:28.880Z,4.87
2018-09-20T07:37:32.239Z,4.70
2018-09-20T07:41:35.583Z,4.70
2018-09-20T07:45:38.969Z,5.30
2018-09-20T07:49:42.034Z,4.90
2018-09-20T07:53:45.455Z,5.30
2018-09-20T07:57:48.764Z,5.07
2018-09-20T08:01:51.922Z,5.13
2018-09-20T08:05:55.306Z,4.57
2018-09-20T08:09:58.676Z,4.90
2018-09-20T08:14:02.058Z,4.57
2018-09-20T08:18:05.414Z,4.17
2018-09-20T08:22:08.740Z,4.93
2018-09-20T08:26:12.091Z,4.87
2018-09-20T08:30:15.431Z,4.60
2018-09-20T08:34:18.862Z,4.63
2018-09-20T08:38:22.263Z,4.30
2018-09-20T08:42:25.599Z,4.40
2018-09-20T08:46:28.942Z,4.27
2018-09-20T08:50:32.291Z,4.90
2018-09-20T08:54:35.636Z,4.43
2018-09-20T08:58:38.992Z,4.97
2018-09-20T09:02:42.349Z,4.50
2018-09-20T09:06:45.708Z,4.70
2018-09-20T09:10:49.111Z,4.97
2018-09-20T09:14:52.239Z,4.57
2018-09-20T09:18:55.531Z,4.90
2018-09-20T09:22:58.856Z,4.10
2018-09-20T09:27:02.200Z,4.20
2018-09-20T09:31:05.548Z,4.03
2018-09-20T09:35:08.894Z,4.40
2018-09-20T09:39:13.170Z,4.50
2018-09-20T09:43:16.508Z,3.98
2018-09-20T09:47:19.883Z,4.28
2018-09-20T09:51:23.226Z,3.85
2018-09-20T09:55:26.592Z,4.50
2018-09-20T09:59:29.955Z,4.25
2018-09-20T10:03:33.279Z,3.40
2018-09-20T10:07:36.642Z,3.65
2018-09-20T10:11:40.405Z,3.35
2018-09-20T10:15:43.812Z,3.47
2018-09-20T10:19:47.272Z,3.70
2018-09-20T10:23:50.627Z,3.65
2018-09-20T10:27:53.940Z,3.55
2018-09-20T10:31:57.315Z,3.45
2018-09-20T10:36:00.705Z,4.35
2018-09-20T10:40:04.412Z,3.83
2018-09-20T10:44:07.798Z,3.37
2018-09-20T10:48:11.551Z,3.30
2018-09-20T10:52:14.927Z,3.90
2018-09-20T10:56:18.298Z,3.27
2018-09-20T11:00:21.640Z,3.45
2018-09-20T11:04:24.947Z,3.45
2018-09-20T11:08:28.298Z,3.98
2018-09-20T11:12:31.647Z,3.65
2018-09-20T11:16:34.983Z,3.85
2018-09-20T11:20:38.328Z,3.92
2018-09-20T11:24:42.201Z,3.37
2018-09-20T11:28:45.561Z,3.47
2018-09-20T11:32:48.915Z,4.00
2018-09-20T11:36:52.279Z,3.65
2018-09-20T11:40:55.614Z,3.30
2018-09-20T11:44:58.929Z,3.27
2018-09-20T11:49:02.310Z,3.60
2018-09-20T11:53:05.663Z,4.00
2018-09-20T11:57:09.015Z,4.30
2018-09-20T12:01:12.439Z,3.80
2018-09-20T12:05:15.777Z,3.50
2018-09-20T12:09:19.136Z,3.83
2018-09-20T12:13:22.494Z,3.90
2018-09-20T12:17:25.848Z,3.55
2018-09-20T12:21:29.287Z,3.42
2018-09-20T12:25:32.631Z,4.10
2018-09-20T12:29:36.001Z,3.83
2018-09-20T12:33:39.356Z,3.85
2018-09-20T12:37:42.699Z,3.62
2018-09-20T12:41:46.052Z,3.45
2018-09-20T12:45:49.601Z,3.40
2018-09-20T12:49:52.949Z,4.25
2018-09-20T12:53:56.348Z,3.87
2018-09-20T12:57:59.692Z,3.40
2018-09-20T13:02:03.095Z,3.60
2018-09-20T13:06:06.396Z,3.52
2018-09-20T13:10:09.788Z,3.72
2018-09-20T13:14:13.114Z,2.98
2018-09-20T13:18:16.479Z,3.10
2018-09-20T13:22:19.830Z,3.75
2018-09-20T13:26:23.199Z,3.20
2018-09-20T13:30:26.535Z,3.85
2018-09-20T13:34:29.883Z,3.40
2018-09-20T13:38:33.240Z,3.45
2018-09-20T13:42:36.664Z,3.33
2018-09-20T13:46:40.019Z,3.67
2018-09-20T13:50:43.428Z,3.50
2018-09-20T13:54:46.776Z,2.98
2018-09-20T13:58:50.098Z,3.42
2018-09-20T14:02:53.420Z,3.65
2018-09-20T14:06:56.741Z,3.65
2018-09-20T14:11:00.140Z,3.30
2018-09-20T14:15:03.856Z,2.83
2018-09-20T14:19:07.353Z,3.45
2018-09-20T14:23:10.727Z,3.27
2018-09-20T14:27:14.053Z,3.20
2018-09-20T14:31:17.347Z,3.27
2018-09-20T14:35:20.696Z,2.77
2018-09-20T14:39:24.044Z,3.33
2018-09-20T14:43:27.375Z,3.72
2018-09-20T14:47:30.746Z,3.35
2018-09-20T14:51:34.067Z,3.75
2018-09-20T14:55:37.432Z,3.12
2018-09-20T14:59:40.806Z,3.35
2018-09-20T15:03:44.122Z,3.17
2018-09-20T15:07:47.467Z,3.40
2018-09-20T15:11:50.787Z,3.85
2018-09-20T15:15:54.104Z,3.30
2018-09-20T15:19:57.485Z,3.47
2018-09-20T15:24:00.830Z,3.35
2018-09-20T15:28:04.196Z,3.10
2018-09-20T15:32:07.858Z,3.52
2018-09-20T15:36:11.259Z,3.20
2018-09-20T15:40:14.610Z,3.50
2018-09-20T15:44:18.026Z,3.30
2018-09-20T15:48:21.408Z,3.55
2018-09-20T15:52:24.822Z,2.98
2018-09-20T15:56:28.259Z,3.02
2018-09-20T16:00:31.588Z,3.08
2018-09-20T16:04:34.931Z,3.30
2018-09-20T16:08:37.998Z,3.42
2018-09-20T16:12:41.239Z,3.15
2018-09-20T16:16:44.270Z,3.10
2018-09-20T16:20:47.318Z,2.90
2018-09-20T16:24:50.384Z,3.15
2018-09-20T16:28:57.436Z,3.40
2018-09-20T16:34:11.907Z,3.17
2018-09-20T16:38:25.868Z,3.70
2018-09-20T16:42:29.370Z,3.20
2018-09-20T16:46:32.554Z,3.62
2018-09-20T16:50:35.648Z,3.95
2018-09-20T16:54:38.708Z,3.50
2018-09-20T16:58:46.086Z,3.47
2018-09-20T17:02:49.154Z,3.95
2018-09-20T17:06:52.215Z,3.05
2018-09-20T17:10:55.314Z,2.90
2018-09-20T17:14:58.650Z,3.52
2018-09-20T17:19:01.627Z,3.27
2018-09-20T17:23:04.703Z,3.27
2018-09-20T17:27:07.797Z,3.47
2018-09-20T17:31:10.902Z,3.77
2018-09-20T17:35:14.202Z,3.20
2018-09-20T17:39:17.505Z,3.25
2018-09-20T17:43:26.620Z,3.67
2018-09-20T17:47:29.748Z,3.30
2018-09-20T17:51:32.958Z,3.45
2018-09-20T17:55:36.137Z,3.70
2018-09-20T17:59:39.190Z,3.35
2018-09-20T18:03:42.264Z,3.67
2018-09-20T18:07:45.437Z,3.67
2018-09-20T18:11:48.513Z,3.30
2018-09-20T18:15:51.570Z,3.50
2018-09-20T18:19:54.682Z,3.67
2018-09-20T18:23:57.768Z,3.80
2018-09-20T18:28:00.831Z,3.70
2018-09-20T18:32:03.899Z,3.40
2018-09-20T18:36:06.947Z,4.17
2018-09-20T18:40:10.050Z,3.40
2018-09-20T18:44:13.114Z,4.10
2018-09-20T18:48:16.194Z,4.07
2018-09-20T18:52:19.247Z,3.87
2018-09-20T18:56:22.399Z,3.77
2018-09-20T19:00:25.469Z,3.90
2018-09-20T19:04:28.536Z,3.57
2018-09-20T19:08:31.686Z,3.77
2018-09-20T19:12:34.780Z,3.67
2018-09-20T19:16:37.842Z,3.63
2018-09-20T19:20:40.941Z,3.93
2018-09-20T19:24:44.019Z,3.73
2018-09-20T19:28:47.081Z,4.00
2018-09-20T19:32:50.238Z,4.07
2018-09-20T19:36:53.278Z,4.10
2018-09-20T19:40:56.351Z,4.10
2018-09-20T19:44:59.413Z,4.07
2018-09-20T19:49:02.543Z,4.13
2018-09-20T19:53:05.588Z,4.37
2018-09-20T19:57:08.646Z,4.27
2018-09-20T20:01:11.703Z,3.80
2018-09-20T20:05:14.782Z,4.30
2018-09-20T20:09:17.838Z,4.30
2018-09-20T20:13:20.903Z,4.07
2018-09-20T20:17:23.964Z,4.57
2018-09-20T20:21:27.059Z,4.97
2018-09-20T20:25:30.115Z,4.50
2018-09-20T20:29:33.256Z,4.97
2018-09-20T20:33:36.301Z,3.80
2018-09-20T20:37:39.421Z,4.47
2018-09-20T20:41:42.478Z,4.10
2018-09-20T20:45:45.541Z,3.87
2018-09-20T20:49:48.651Z,3.77
2018-09-20T20:53:51.720Z,3.83
2018-09-20T20:57:54.783Z,4.20
2018-09-20T21:01:57.867Z,3.93
2018-09-20T21:06:00.944Z,3.87
2018-09-20T21:10:04.030Z,4.10
2018-09-20T21:14:07.140Z,3.70
2018-09-20T21:18:10.188Z,4.20
2018-09-20T21:22:13.253Z,3.90
2018-09-20T21:26:16.310Z,4.20
2018-09-20T21:30:19.383Z,3.70
2018-09-20T21:34:22.450Z,3.97
2018-09-20T21:38:25.479Z,3.80
2018-09-20T21:42:28.906Z,3.60
2018-09-20T21:46:32.791Z,3.97
2018-09-20T21:50:35.897Z,4.00
2018-09-20T21:54:38.990Z,4.50
2018-09-20T21:58:42.355Z,4.73
2018-09-20T22:02:50.869Z,3.93
2018-09-20T22:06:53.960Z,3.80
2018-09-20T22:10:57.040Z,3.70
2018-09-20T22:15:00.118Z,3.70
2018-09-20T22:19:03.158Z,3.93
2018-09-20T22:23:06.263Z,3.67
2018-09-20T22:27:09.337Z,4.07
2018-09-20T22:31:12.447Z,4.17
2018-09-20T22:35:15.498Z,3.70
2018-09-20T22:39:18.630Z,4.17
2018-09-20T22:43:21.688Z,3.70
2018-09-20T22:47:24.748Z,4.00
2018-09-20T22:51:27.809Z,4.07
2018-09-20T22:55:30.891Z,3.57
2018-09-20T22:59:33.991Z,3.87
2018-09-20T23:03:37.058Z,3.70
2018-09-20T23:07:40.109Z,3.70
2018-09-20T23:11:43.205Z,3.70
2018-09-20T23:15:46.270Z,3.40
2018-09-20T23:19:49.314Z,3.50
2018-09-20T23:23:52.366Z,3.53
2018-09-20T23:27:55.448Z,3.50
2018-09-20T23:31:58.506Z,3.70
2018-09-20T23:36:01.587Z,3.10
2018-09-20T23:40:04.762Z,3.70
2018-09-20T23:44:08.349Z,3.30
2018-09-20T23:48:11.408Z,3.67
2018-09-20T23:52:14.466Z,3.30
2018-09-20T23:56:17.526Z,3.57
